sensor_id;sensor_type;location;lat;lon;timestamp;pressure;altitude;pressure_sealevel;temperature;humidity
33859;BME280;20156;47.486;12.074;2023-06-04T00:00:09;63601.63;;;-144.78;100.00
33859;BME280;20156;47.486;12.074;2023-06-04T00:02:35;63601.63;;;-144.78;100.00
33859;BME280;20156;47.486;12.074;2023-06-04T00:05:01;63601.63;;;-144.78;100.00
33859;BME280;20156;47.486;12.074;2023-06-04T00:07:26;63601.63;;;-144.78;100.00
33859;BME280;20156;47.486;12.074;2023-06-04T00:09:53;63601.63;;;-144.78;100.00
33859;BME280;20156;47.486;12.074;2023-06-04T00:12:18;63601.63;;;-144.78;100.00
33859;BME280;20156;47.486;12.074;2023-06-04T00:14:44;63601.63;;;-144.78;100.00
33859;BME280;20156;47.486;12.074;2023-06-04T00:17:10;63601.63;;;-144.78;100.00
33859;BME280;20156;47.486;12.074;2023-06-04T00:19:38;63601.63;;;-144.78;100.00
33859;BME280;20156;47.486;12.074;2023-06-04T00:22:04;63601.63;;;-144.78;100.00
33859;BME280;20156;47.486;12.074;2023-06-04T00:24:31;63601.63;;;-144.78;100.00
33859;BME280;20156;47.486;12.074;2023-06-04T00:26:56;63601.63;;;-144.78;100.00
33859;BME280;20156;47.486;12.074;2023-06-04T00:29:22;63601.63;;;-144.78;100.00
33859;BME280;20156;47.486;12.074;2023-06-04T00:31:47;63601.63;;;-144.78;100.00
33859;BME280;20156;47.486;12.074;2023-06-04T00:34:13;63601.63;;;-144.78;100.00
33859;BME280;20156;47.486;12.074;2023-06-04T00:36:39;63601.63;;;-144.78;100.00
33859;BME280;20156;47.486;12.074;2023-06-04T00:39:05;63601.63;;;-144.78;100.00
33859;BME280;20156;47.486;12.074;2023-06-04T00:41:31;63601.63;;;-144.78;100.00
33859;BME280;20156;47.486;12.074;2023-06-04T00:43:56;63601.63;;;-144.78;100.00
33859;BME280;20156;47.486;12.074;2023-06-04T00:46:25;63601.63;;;-144.78;100.00
33859;BME280;20156;47.486;12.074;2023-06-04T00:48:52;63601.63;;;-144.78;100.00
33859;BME280;20156;47.486;12.074;2023-06-04T00:51:18;63601.63;;;-144.78;100.00
33859;BME280;20156;47.486;12.074;2023-06-04T00:53:43;63601.63;;;-144.78;100.00
33859;BME280;20156;47.486;12.074;2023-06-04T00:56:09;63601.63;;;-144.78;100.00
33859;BME280;20156;47.486;12.074;2023-06-04T00:58:38;63601.63;;;-144.78;100.00
33859;BME280;20156;47.486;12.074;2023-06-04T01:01:15;63601.63;;;-144.78;100.00
33859;BME280;20156;47.486;12.074;2023-06-04T01:03:47;63601.63;;;-144.78;100.00
33859;BME280;20156;47.486;12.074;2023-06-04T01:09:02;63601.63;;;-144.78;100.00
33859;BME280;20156;47.486;12.074;2023-06-04T01:11:36;63601.63;;;-144.78;100.00
33859;BME280;20156;47.486;12.074;2023-06-04T01:14:03;63601.63;;;-144.78;100.00
33859;BME280;20156;47.486;12.074;2023-06-04T01:16:39;63601.63;;;-144.78;100.00
33859;BME280;20156;47.486;12.074;2023-06-04T01:22:48;63601.63;;;-144.78;100.00
33859;BME280;20156;47.486;12.074;2023-06-04T01:25:43;63601.63;;;-144.78;100.00
33859;BME280;20156;47.486;12.074;2023-06-04T01:28:10;63601.63;;;-144.78;100.00
33859;BME280;20156;47.486;12.074;2023-06-04T01:30:38;63601.63;;;-144.78;100.00
33859;BME280;20156;47.486;12.074;2023-06-04T01:33:15;63601.63;;;-144.78;100.00
33859;BME280;20156;47.486;12.074;2023-06-04T01:35:41;63601.63;;;-144.78;100.00
33859;BME280;20156;47.486;12.074;2023-06-04T01:38:06;63601.63;;;-144.78;100.00
33859;BME280;20156;47.486;12.074;2023-06-04T01:40:32;63601.63;;;-144.78;100.00
33859;BME280;20156;47.486;12.074;2023-06-04T01:42:58;63601.63;;;-144.78;100.00
33859;BME280;20156;47.486;12.074;2023-06-04T01:45:25;63601.63;;;-144.78;100.00
33859;BME280;20156;47.486;12.074;2023-06-04T01:47:51;63601.63;;;-144.78;100.00
33859;BME280;20156;47.486;12.074;2023-06-04T01:50:17;63601.63;;;-144.78;100.00
33859;BME280;20156;47.486;12.074;2023-06-04T01:52:42;63601.63;;;-144.78;100.00
33859;BME280;20156;47.486;12.074;2023-06-04T01:55:10;63601.63;;;-144.78;100.00
33859;BME280;20156;47.486;12.074;2023-06-04T01:57:37;63601.63;;;-144.78;100.00
33859;BME280;20156;47.486;12.074;2023-06-04T02:00:05;63601.63;;;-144.78;100.00
33859;BME280;20156;47.486;12.074;2023-06-04T02:02:35;63601.63;;;-144.78;100.00
33859;BME280;20156;47.486;12.074;2023-06-04T02:05:07;63601.63;;;-144.78;100.00
33859;BME280;20156;47.486;12.074;2023-06-04T02:07:41;63601.63;;;-144.78;100.00
33859;BME280;20156;47.486;12.074;2023-06-04T02:10:18;63601.63;;;-144.78;100.00
33859;BME280;20156;47.486;12.074;2023-06-04T02:13:02;63601.63;;;-144.78;100.00
33859;BME280;20156;47.486;12.074;2023-06-04T02:15:29;63601.63;;;-144.78;100.00
33859;BME280;20156;47.486;12.074;2023-06-04T02:17:57;63601.63;;;-144.78;100.00
33859;BME280;20156;47.486;12.074;2023-06-04T02:20:25;63601.63;;;-144.78;100.00
33859;BME280;20156;47.486;12.074;2023-06-04T02:22:51;63601.63;;;-144.78;100.00
33859;BME280;20156;47.486;12.074;2023-06-04T02:25:16;63601.63;;;-144.78;100.00
33859;BME280;20156;47.486;12.074;2023-06-04T02:27:42;63601.63;;;-144.78;100.00
33859;BME280;20156;47.486;12.074;2023-06-04T02:30:07;63601.63;;;-144.78;100.00
33859;BME280;20156;47.486;12.074;2023-06-04T02:32:33;63601.63;;;-144.78;100.00
33859;BME280;20156;47.486;12.074;2023-06-04T02:35:01;63601.63;;;-144.78;100.00
33859;BME280;20156;47.486;12.074;2023-06-04T02:37:26;63601.63;;;-144.78;100.00
33859;BME280;20156;47.486;12.074;2023-06-04T02:39:52;63601.63;;;-144.78;100.00
33859;BME280;20156;47.486;12.074;2023-06-04T02:42:17;63601.63;;;-144.78;100.00
33859;BME280;20156;47.486;12.074;2023-06-04T02:44:43;63601.63;;;-144.78;100.00
33859;BME280;20156;47.486;12.074;2023-06-04T02:47:08;63601.63;;;-144.78;100.00
33859;BME280;20156;47.486;12.074;2023-06-04T02:49:34;63601.63;;;-144.78;100.00
33859;BME280;20156;47.486;12.074;2023-06-04T02:51:59;63601.63;;;-144.78;100.00
33859;BME280;20156;47.486;12.074;2023-06-04T02:54:25;63601.63;;;-144.78;100.00
33859;BME280;20156;47.486;12.074;2023-06-04T02:56:50;63601.63;;;-144.78;100.00
33859;BME280;20156;47.486;12.074;2023-06-04T02:59:16;63601.63;;;-144.78;100.00
33859;BME280;20156;47.486;12.074;2023-06-04T03:01:42;63601.63;;;-144.78;100.00
33859;BME280;20156;47.486;12.074;2023-06-04T03:04:07;63601.63;;;-144.78;100.00
33859;BME280;20156;47.486;12.074;2023-06-04T03:06:36;63601.63;;;-144.78;100.00
33859;BME280;20156;47.486;12.074;2023-06-04T03:09:04;63601.63;;;-144.78;100.00
33859;BME280;20156;47.486;12.074;2023-06-04T03:11:30;63601.63;;;-144.78;100.00
33859;BME280;20156;47.486;12.074;2023-06-04T03:13:55;63601.63;;;-144.78;100.00
33859;BME280;20156;47.486;12.074;2023-06-04T03:16:21;63601.63;;;-144.78;100.00
33859;BME280;20156;47.486;12.074;2023-06-04T03:18:46;63601.63;;;-144.78;100.00
33859;BME280;20156;47.486;12.074;2023-06-04T03:21:12;63601.63;;;-144.78;100.00
33859;BME280;20156;47.486;12.074;2023-06-04T03:23:39;63601.63;;;-144.78;100.00
33859;BME280;20156;47.486;12.074;2023-06-04T03:26:05;63601.63;;;-144.78;100.00
33859;BME280;20156;47.486;12.074;2023-06-04T03:28:31;63601.63;;;-144.78;100.00
33859;BME280;20156;47.486;12.074;2023-06-04T03:30:57;63601.63;;;-144.78;100.00
33859;BME280;20156;47.486;12.074;2023-06-04T03:33:23;63601.63;;;-144.78;100.00
33859;BME280;20156;47.486;12.074;2023-06-04T03:35:50;63601.63;;;-144.78;100.00
33859;BME280;20156;47.486;12.074;2023-06-04T03:38:15;63601.63;;;-144.78;100.00
33859;BME280;20156;47.486;12.074;2023-06-04T03:40:41;63601.63;;;-144.78;100.00
33859;BME280;20156;47.486;12.074;2023-06-04T03:43:06;63601.63;;;-144.78;100.00
33859;BME280;20156;47.486;12.074;2023-06-04T03:45:32;63601.63;;;-144.78;100.00
33859;BME280;20156;47.486;12.074;2023-06-04T03:47:57;63601.63;;;-144.78;100.00
33859;BME280;20156;47.486;12.074;2023-06-04T03:50:23;63601.63;;;-144.78;100.00
33859;BME280;20156;47.486;12.074;2023-06-04T03:52:49;63601.63;;;-144.78;100.00
33859;BME280;20156;47.486;12.074;2023-06-04T03:55:14;63601.63;;;-144.78;100.00
33859;BME280;20156;47.486;12.074;2023-06-04T03:57:40;63601.63;;;-144.78;100.00
33859;BME280;20156;47.486;12.074;2023-06-04T04:00:08;63601.63;;;-144.78;100.00
33859;BME280;20156;47.486;12.074;2023-06-04T04:02:37;63601.63;;;-144.78;100.00
33859;BME280;20156;47.486;12.074;2023-06-04T04:05:03;63601.63;;;-144.78;100.00
33859;BME280;20156;47.486;12.074;2023-06-04T04:07:28;63601.63;;;-144.78;100.00
33859;BME280;20156;47.486;12.074;2023-06-04T04:09:54;63601.63;;;-144.78;100.00
33859;BME280;20156;47.486;12.074;2023-06-04T04:12:19;63601.63;;;-144.78;100.00
33859;BME280;20156;47.486;12.074;2023-06-04T04:14:44;63601.63;;;-144.78;100.00
33859;BME280;20156;47.486;12.074;2023-06-04T04:17:12;63601.63;;;-144.78;100.00
33859;BME280;20156;47.486;12.074;2023-06-04T04:19:38;63601.63;;;-144.78;100.00
33859;BME280;20156;47.486;12.074;2023-06-04T04:22:03;63601.63;;;-144.78;100.00
33859;BME280;20156;47.486;12.074;2023-06-04T04:24:29;63601.63;;;-144.78;100.00
33859;BME280;20156;47.486;12.074;2023-06-04T04:26:54;63601.63;;;-144.78;100.00
33859;BME280;20156;47.486;12.074;2023-06-04T04:29:21;63601.63;;;-144.78;100.00
33859;BME280;20156;47.486;12.074;2023-06-04T04:32:02;63601.63;;;-144.78;100.00
33859;BME280;20156;47.486;12.074;2023-06-04T04:34:53;63601.63;;;-144.78;100.00
33859;BME280;20156;47.486;12.074;2023-06-04T04:37:20;63601.63;;;-144.78;100.00
33859;BME280;20156;47.486;12.074;2023-06-04T04:39:49;63601.63;;;-144.78;100.00
33859;BME280;20156;47.486;12.074;2023-06-04T04:42:18;63601.63;;;-144.78;100.00
33859;BME280;20156;47.486;12.074;2023-06-04T04:44:44;63601.63;;;-144.78;100.00
33859;BME280;20156;47.486;12.074;2023-06-04T04:47:13;63601.63;;;-144.78;100.00
33859;BME280;20156;47.486;12.074;2023-06-04T04:49:39;63601.63;;;-144.78;100.00
33859;BME280;20156;47.486;12.074;2023-06-04T04:52:04;63601.63;;;-144.78;100.00
33859;BME280;20156;47.486;12.074;2023-06-04T04:54:29;63601.63;;;-144.78;100.00
33859;BME280;20156;47.486;12.074;2023-06-04T04:56:55;63601.63;;;-144.78;100.00
33859;BME280;20156;47.486;12.074;2023-06-04T04:59:20;63601.63;;;-144.78;100.00
33859;BME280;20156;47.486;12.074;2023-06-04T05:01:45;63601.63;;;-144.78;100.00
33859;BME280;20156;47.486;12.074;2023-06-04T05:04:11;63601.63;;;-144.78;100.00
33859;BME280;20156;47.486;12.074;2023-06-04T05:06:37;63601.63;;;-144.78;100.00
33859;BME280;20156;47.486;12.074;2023-06-04T05:09:02;63601.63;;;-144.78;100.00
33859;BME280;20156;47.486;12.074;2023-06-04T05:11:29;63601.63;;;-144.78;100.00
33859;BME280;20156;47.486;12.074;2023-06-04T05:13:54;63601.63;;;-144.78;100.00
33859;BME280;20156;47.486;12.074;2023-06-04T05:16:20;63601.63;;;-144.78;100.00
33859;BME280;20156;47.486;12.074;2023-06-04T05:18:48;63601.63;;;-144.78;100.00
33859;BME280;20156;47.486;12.074;2023-06-04T05:21:16;63601.63;;;-144.78;100.00
33859;BME280;20156;47.486;12.074;2023-06-04T05:23:42;63601.63;;;-144.78;100.00
33859;BME280;20156;47.486;12.074;2023-06-04T05:26:09;63601.63;;;-144.78;100.00
33859;BME280;20156;47.486;12.074;2023-06-04T05:28:34;63601.63;;;-144.78;100.00
33859;BME280;20156;47.486;12.074;2023-06-04T05:31:00;63601.63;;;-144.78;100.00
33859;BME280;20156;47.486;12.074;2023-06-04T05:33:26;63601.63;;;-144.78;100.00
33859;BME280;20156;47.486;12.074;2023-06-04T05:35:52;63601.63;;;-144.78;100.00
33859;BME280;20156;47.486;12.074;2023-06-04T05:38:19;63601.63;;;-144.78;100.00
33859;BME280;20156;47.486;12.074;2023-06-04T05:40:45;63601.63;;;-144.78;100.00
33859;BME280;20156;47.486;12.074;2023-06-04T05:43:11;63601.63;;;-144.78;100.00
33859;BME280;20156;47.486;12.074;2023-06-04T05:45:37;63601.63;;;-144.78;100.00
33859;BME280;20156;47.486;12.074;2023-06-04T05:48:03;63601.63;;;-144.78;100.00
33859;BME280;20156;47.486;12.074;2023-06-04T05:50:28;63601.63;;;-144.78;100.00
33859;BME280;20156;47.486;12.074;2023-06-04T05:52:54;63601.63;;;-144.78;100.00
33859;BME280;20156;47.486;12.074;2023-06-04T05:55:19;63601.63;;;-144.78;100.00
33859;BME280;20156;47.486;12.074;2023-06-04T05:57:45;63601.63;;;-144.78;100.00
33859;BME280;20156;47.486;12.074;2023-06-04T06:00:11;63601.63;;;-144.78;100.00
33859;BME280;20156;47.486;12.074;2023-06-04T06:02:36;63601.63;;;-144.78;100.00
33859;BME280;20156;47.486;12.074;2023-06-04T06:05:04;63601.63;;;-144.78;100.00
33859;BME280;20156;47.486;12.074;2023-06-04T06:07:32;63601.63;;;-144.78;100.00
33859;BME280;20156;47.486;12.074;2023-06-04T06:09:57;63601.63;;;-144.78;100.00
33859;BME280;20156;47.486;12.074;2023-06-04T06:12:22;63601.63;;;-144.78;100.00
33859;BME280;20156;47.486;12.074;2023-06-04T06:14:48;63601.63;;;-144.78;100.00
33859;BME280;20156;47.486;12.074;2023-06-04T06:17:13;63601.63;;;-144.78;100.00
33859;BME280;20156;47.486;12.074;2023-06-04T06:19:39;63601.63;;;-144.78;100.00
33859;BME280;20156;47.486;12.074;2023-06-04T06:22:04;63601.63;;;-144.78;100.00
33859;BME280;20156;47.486;12.074;2023-06-04T06:24:29;63601.63;;;-144.78;100.00
33859;BME280;20156;47.486;12.074;2023-06-04T06:26:55;63601.63;;;-144.78;100.00
33859;BME280;20156;47.486;12.074;2023-06-04T06:29:21;63601.63;;;-144.78;100.00
33859;BME280;20156;47.486;12.074;2023-06-04T06:31:46;63601.63;;;-144.78;100.00
33859;BME280;20156;47.486;12.074;2023-06-04T06:34:12;63601.63;;;-144.78;100.00
33859;BME280;20156;47.486;12.074;2023-06-04T06:36:38;63601.63;;;-144.78;100.00
33859;BME280;20156;47.486;12.074;2023-06-04T06:39:03;63601.63;;;-144.78;100.00
33859;BME280;20156;47.486;12.074;2023-06-04T06:41:29;63601.63;;;-144.78;100.00
33859;BME280;20156;47.486;12.074;2023-06-04T06:43:58;63601.63;;;-144.78;100.00
33859;BME280;20156;47.486;12.074;2023-06-04T06:46:24;63601.63;;;-144.78;100.00
33859;BME280;20156;47.486;12.074;2023-06-04T06:48:49;63601.63;;;-144.78;100.00
33859;BME280;20156;47.486;12.074;2023-06-04T06:51:15;63601.63;;;-144.78;100.00
33859;BME280;20156;47.486;12.074;2023-06-04T06:53:40;63601.63;;;-144.78;100.00
33859;BME280;20156;47.486;12.074;2023-06-04T06:56:06;63601.63;;;-144.78;100.00
33859;BME280;20156;47.486;12.074;2023-06-04T06:58:32;63601.63;;;-144.78;100.00
33859;BME280;20156;47.486;12.074;2023-06-04T07:00:57;63601.63;;;-144.78;100.00
33859;BME280;20156;47.486;12.074;2023-06-04T07:03:23;63601.63;;;-144.78;100.00
33859;BME280;20156;47.486;12.074;2023-06-04T07:05:48;63601.63;;;-144.78;100.00
33859;BME280;20156;47.486;12.074;2023-06-04T07:08:14;63601.63;;;-144.78;100.00
33859;BME280;20156;47.486;12.074;2023-06-04T07:10:39;63601.63;;;-144.78;100.00
33859;BME280;20156;47.486;12.074;2023-06-04T07:13:04;63601.63;;;-144.78;100.00
33859;BME280;20156;47.486;12.074;2023-06-04T07:15:30;63601.63;;;-144.78;100.00
33859;BME280;20156;47.486;12.074;2023-06-04T07:17:56;63601.63;;;-144.78;100.00
33859;BME280;20156;47.486;12.074;2023-06-04T07:20:21;63601.63;;;-144.78;100.00
33859;BME280;20156;47.486;12.074;2023-06-04T07:22:46;63601.63;;;-144.78;100.00
33859;BME280;20156;47.486;12.074;2023-06-04T07:25:12;63601.63;;;-144.78;100.00
33859;BME280;20156;47.486;12.074;2023-06-04T07:27:37;63601.63;;;-144.78;100.00
33859;BME280;20156;47.486;12.074;2023-06-04T07:30:03;63601.63;;;-144.78;100.00
33859;BME280;20156;47.486;12.074;2023-06-04T07:32:29;63601.63;;;-144.78;100.00
33859;BME280;20156;47.486;12.074;2023-06-04T07:34:54;63601.63;;;-144.78;100.00
33859;BME280;20156;47.486;12.074;2023-06-04T07:37:20;63601.63;;;-144.78;100.00
33859;BME280;20156;47.486;12.074;2023-06-04T07:39:45;63601.63;;;-144.78;100.00
33859;BME280;20156;47.486;12.074;2023-06-04T07:42:10;63601.63;;;-144.78;100.00
33859;BME280;20156;47.486;12.074;2023-06-04T07:44:36;63601.63;;;-144.78;100.00
33859;BME280;20156;47.486;12.074;2023-06-04T07:47:03;63601.63;;;-144.78;100.00
33859;BME280;20156;47.486;12.074;2023-06-04T07:49:28;63601.63;;;-144.78;100.00
33859;BME280;20156;47.486;12.074;2023-06-04T07:51:53;63601.63;;;-144.78;100.00
33859;BME280;20156;47.486;12.074;2023-06-04T07:54:19;63601.63;;;-144.78;100.00
33859;BME280;20156;47.486;12.074;2023-06-04T07:56:45;63601.63;;;-144.78;100.00
33859;BME280;20156;47.486;12.074;2023-06-04T07:59:10;63601.63;;;-144.78;100.00
33859;BME280;20156;47.486;12.074;2023-06-04T08:01:35;63601.63;;;-144.78;100.00
33859;BME280;20156;47.486;12.074;2023-06-04T08:04:01;63601.63;;;-144.78;100.00
33859;BME280;20156;47.486;12.074;2023-06-04T08:06:26;63601.63;;;-144.78;100.00
33859;BME280;20156;47.486;12.074;2023-06-04T08:08:52;63601.63;;;-144.78;100.00
33859;BME280;20156;47.486;12.074;2023-06-04T08:11:18;63601.63;;;-144.78;100.00
33859;BME280;20156;47.486;12.074;2023-06-04T08:13:44;71800.91;;;-144.78;100.00
33859;BME280;20156;47.486;12.074;2023-06-04T08:16:09;63601.63;;;-144.78;100.00
33859;BME280;20156;47.486;12.074;2023-06-04T08:18:39;63601.63;;;-144.78;100.00
33859;BME280;20156;47.486;12.074;2023-06-04T08:21:05;63601.63;;;-144.78;100.00
33859;BME280;20156;47.486;12.074;2023-06-04T08:23:31;63601.63;;;-144.78;100.00
33859;BME280;20156;47.486;12.074;2023-06-04T08:25:57;63601.63;;;-144.78;100.00
33859;BME280;20156;47.486;12.074;2023-06-04T08:28:24;63601.63;;;-144.78;100.00
33859;BME280;20156;47.486;12.074;2023-06-04T08:30:49;63601.63;;;-144.78;100.00
33859;BME280;20156;47.486;12.074;2023-06-04T08:33:15;63601.63;;;-144.78;100.00
33859;BME280;20156;47.486;12.074;2023-06-04T08:35:40;63601.63;;;-144.78;100.00
33859;BME280;20156;47.486;12.074;2023-06-04T08:38:06;63601.63;;;-144.78;100.00
33859;BME280;20156;47.486;12.074;2023-06-04T08:40:31;63601.63;;;-144.78;100.00
33859;BME280;20156;47.486;12.074;2023-06-04T08:42:56;63601.63;;;-144.78;100.00
33859;BME280;20156;47.486;12.074;2023-06-04T08:45:25;63601.63;;;-144.78;100.00
33859;BME280;20156;47.486;12.074;2023-06-04T08:47:51;63601.63;;;-144.78;100.00
33859;BME280;20156;47.486;12.074;2023-06-04T08:50:19;63601.63;;;-144.78;100.00
33859;BME280;20156;47.486;12.074;2023-06-04T08:52:44;63601.63;;;-144.78;100.00
33859;BME280;20156;47.486;12.074;2023-06-04T08:55:14;63601.63;;;-144.78;100.00
33859;BME280;20156;47.486;12.074;2023-06-04T08:57:40;63601.63;;;-144.78;100.00
33859;BME280;20156;47.486;12.074;2023-06-04T09:00:08;63601.63;;;-144.78;100.00
33859;BME280;20156;47.486;12.074;2023-06-04T09:02:36;63601.63;;;-144.78;100.00
33859;BME280;20156;47.486;12.074;2023-06-04T09:05:04;63601.63;;;-144.78;100.00
33859;BME280;20156;47.486;12.074;2023-06-04T09:07:30;63601.63;;;-144.78;100.00
33859;BME280;20156;47.486;12.074;2023-06-04T09:09:58;63601.63;;;-144.78;100.00
33859;BME280;20156;47.486;12.074;2023-06-04T09:12:24;63601.63;;;-144.78;100.00
33859;BME280;20156;47.486;12.074;2023-06-04T09:14:50;63601.63;;;-144.78;100.00
33859;BME280;20156;47.486;12.074;2023-06-04T09:17:23;63601.63;;;-144.78;100.00
33859;BME280;20156;47.486;12.074;2023-06-04T09:19:50;63601.63;;;-144.78;100.00
33859;BME280;20156;47.486;12.074;2023-06-04T09:22:15;63601.63;;;-144.78;100.00
33859;BME280;20156;47.486;12.074;2023-06-04T09:24:42;63601.63;;;-144.78;100.00
33859;BME280;20156;47.486;12.074;2023-06-04T09:29:38;63601.63;;;-144.78;100.00
33859;BME280;20156;47.486;12.074;2023-06-04T09:32:04;63601.63;;;-144.78;100.00
33859;BME280;20156;47.486;12.074;2023-06-04T09:34:30;63601.63;;;-144.78;100.00
33859;BME280;20156;47.486;12.074;2023-06-04T09:36:56;63601.63;;;-144.78;100.00
33859;BME280;20156;47.486;12.074;2023-06-04T09:39:22;63601.63;;;-144.78;100.00
33859;BME280;20156;47.486;12.074;2023-06-04T09:42:01;63601.63;;;-144.78;100.00
33859;BME280;20156;47.486;12.074;2023-06-04T09:44:29;63601.63;;;-144.78;100.00
33859;BME280;20156;47.486;12.074;2023-06-04T09:46:58;63601.63;;;-144.78;100.00
33859;BME280;20156;47.486;12.074;2023-06-04T09:49:24;63601.63;;;-144.78;100.00
33859;BME280;20156;47.486;12.074;2023-06-04T09:51:50;63601.63;;;-144.78;100.00
33859;BME280;20156;47.486;12.074;2023-06-04T09:54:16;63601.63;;;-144.78;100.00
33859;BME280;20156;47.486;12.074;2023-06-04T09:56:41;63601.63;;;-144.78;100.00
33859;BME280;20156;47.486;12.074;2023-06-04T09:59:08;63601.63;;;-144.78;100.00
33859;BME280;20156;47.486;12.074;2023-06-04T10:01:38;63601.63;;;-144.78;100.00
33859;BME280;20156;47.486;12.074;2023-06-04T10:04:06;63601.63;;;-144.78;100.00
33859;BME280;20156;47.486;12.074;2023-06-04T10:06:35;63601.63;;;-144.78;100.00
33859;BME280;20156;47.486;12.074;2023-06-04T10:09:08;63601.63;;;-144.78;100.00
33859;BME280;20156;47.486;12.074;2023-06-04T10:11:35;63601.63;;;-144.78;100.00
33859;BME280;20156;47.486;12.074;2023-06-04T10:14:05;63601.63;;;-144.78;100.00
33859;BME280;20156;47.486;12.074;2023-06-04T10:16:32;63601.63;;;-144.78;100.00
33859;BME280;20156;47.486;12.074;2023-06-04T10:18:59;63601.63;;;-144.78;100.00
33859;BME280;20156;47.486;12.074;2023-06-04T10:21:26;63601.63;;;-144.78;100.00
33859;BME280;20156;47.486;12.074;2023-06-04T10:23:51;63601.63;;;-144.78;100.00
33859;BME280;20156;47.486;12.074;2023-06-04T10:26:17;63601.63;;;-144.78;100.00
33859;BME280;20156;47.486;12.074;2023-06-04T10:28:43;63601.63;;;-144.78;100.00
33859;BME280;20156;47.486;12.074;2023-06-04T10:31:09;63601.63;;;-144.78;100.00
33859;BME280;20156;47.486;12.074;2023-06-04T10:33:35;63601.63;;;-144.78;100.00
33859;BME280;20156;47.486;12.074;2023-06-04T10:36:18;63601.63;;;-144.78;100.00
33859;BME280;20156;47.486;12.074;2023-06-04T10:38:49;63601.63;;;-144.78;100.00
33859;BME280;20156;47.486;12.074;2023-06-04T10:41:16;63601.63;;;-144.78;100.00
33859;BME280;20156;47.486;12.074;2023-06-04T10:43:46;63601.63;;;-144.78;100.00
33859;BME280;20156;47.486;12.074;2023-06-04T10:46:15;63601.63;;;-144.78;100.00
33859;BME280;20156;47.486;12.074;2023-06-04T10:48:51;63601.63;;;-144.78;100.00
33859;BME280;20156;47.486;12.074;2023-06-04T10:51:31;63601.63;;;-144.78;100.00
33859;BME280;20156;47.486;12.074;2023-06-04T10:54:00;63601.63;;;-144.78;100.00
33859;BME280;20156;47.486;12.074;2023-06-04T10:56:33;63601.63;;;-144.78;100.00
33859;BME280;20156;47.486;12.074;2023-06-04T10:59:16;63601.63;;;-144.78;100.00
33859;BME280;20156;47.486;12.074;2023-06-04T11:01:42;95001.75;;;20.15;100.00
33859;BME280;20156;47.486;12.074;2023-06-04T11:04:18;95001.75;;;20.15;100.00
33859;BME280;20156;47.486;12.074;2023-06-04T11:06:44;63601.63;;;-144.78;100.00
33859;BME280;20156;47.486;12.074;2023-06-04T11:09:13;71728.94;;;-144.78;100.00
33859;BME280;20156;47.486;12.074;2023-06-04T11:11:40;63601.63;;;-144.78;100.00
33859;BME280;20156;47.486;12.074;2023-06-04T11:14:11;63601.63;;;-144.78;100.00
33859;BME280;20156;47.486;12.074;2023-06-04T11:16:41;63601.63;;;-144.78;100.00
33859;BME280;20156;47.486;12.074;2023-06-04T11:19:06;63601.63;;;-144.78;100.00
33859;BME280;20156;47.486;12.074;2023-06-04T11:21:34;63601.63;;;-144.78;100.00
33859;BME280;20156;47.486;12.074;2023-06-04T11:24:02;63601.63;;;-144.78;100.00
33859;BME280;20156;47.486;12.074;2023-06-04T11:26:31;63601.63;;;-144.78;100.00
33859;BME280;20156;47.486;12.074;2023-06-04T11:28:58;63601.63;;;-144.78;100.00
33859;BME280;20156;47.486;12.074;2023-06-04T11:31:23;63601.63;;;-144.78;100.00
33859;BME280;20156;47.486;12.074;2023-06-04T11:33:49;63601.63;;;-144.78;100.00
33859;BME280;20156;47.486;12.074;2023-06-04T11:36:28;63601.63;;;-144.78;100.00
33859;BME280;20156;47.486;12.074;2023-06-04T11:38:57;71728.94;;;-144.78;100.00
33859;BME280;20156;47.486;12.074;2023-06-04T11:41:30;95001.75;;;20.15;100.00
33859;BME280;20156;47.486;12.074;2023-06-04T11:43:56;94843.06;;;25.32;100.00
33859;BME280;20156;47.486;12.074;2023-06-04T11:46:23;94858.59;;;25.07;100.00
33859;BME280;20156;47.486;12.074;2023-06-04T11:48:51;94858.75;;;24.88;100.00
33859;BME280;20156;47.486;12.074;2023-06-04T11:51:19;94843.16;;;25.49;100.00
33859;BME280;20156;47.486;12.074;2023-06-04T11:53:45;94831.81;;;25.12;100.00
33859;BME280;20156;47.486;12.074;2023-06-04T11:56:10;94844.84;;;25.14;100.00
33859;BME280;20156;47.486;12.074;2023-06-04T11:58:36;94822.34;;;24.84;100.00
33859;BME280;20156;47.486;12.074;2023-06-04T12:01:02;94861.28;;;25.16;100.00
33859;BME280;20156;47.486;12.074;2023-06-04T12:03:38;94855.75;;;25.66;100.00
33859;BME280;20156;47.486;12.074;2023-06-04T12:06:17;94858.25;;;25.54;100.00
33859;BME280;20156;47.486;12.074;2023-06-04T12:08:52;94849.50;;;26.01;100.00
33859;BME280;20156;47.486;12.074;2023-06-04T12:11:34;94873.59;;;25.03;100.00
33859;BME280;20156;47.486;12.074;2023-06-04T12:14:16;94840.38;;;25.54;100.00
33859;BME280;20156;47.486;12.074;2023-06-04T12:16:43;94835.50;;;25.25;100.00
33859;BME280;20156;47.486;12.074;2023-06-04T12:19:10;94804.03;;;24.82;100.00
33859;BME280;20156;47.486;12.074;2023-06-04T12:21:37;94810.44;;;24.59;100.00
33859;BME280;20156;47.486;12.074;2023-06-04T12:26:32;94817.56;;;24.50;100.00
33859;BME280;20156;47.486;12.074;2023-06-04T12:29:07;94854.00;;;24.63;100.00
33859;BME280;20156;47.486;12.074;2023-06-04T12:31:33;94849.25;;;24.10;100.00
33859;BME280;20156;47.486;12.074;2023-06-04T12:34:00;94839.22;;;23.93;100.00